Terminal Aerodrome Forecast
Issued by NWS

Home | Current Version | Previous Version | Text Only | Print | Product List | Glossary On
Versions: 1 2 3 4 5 6 7 8 9 10 11 12 13 14 15 16 17 18 19 20 21 22 23 24 25 26 27 28 29 30 31 32 33 34 35 36 37 38 39 40 41 42 43 44
000
FTUS45 KBOU 300540
TAFAPA
TAF
KAPA 300540Z 3006/3106 17009KT P6SM BKN200
     FM300900 20006KT P6SM FEW140 BKN200
     FM301300 VRB04KT P6SM FEW080 BKN120
     FM301600 24007KT P6SM FEW060 BKN080 OVC110
     FM302000 35006KT P6SM SCT050 BKN070 OVC090
     FM310200 01007KT P6SM VCSH SCT030 BKN045 OVC060
      TEMPO 3103/3106 -SHSN BKN020 OVC035=

USA.gov is the U.S. government's official web portal to all federal, state and local government web resources and services.